sensor_id;sensor_type;location;lat;lon;timestamp;temperature;humidity
56137;DHT22;42008;52.934;5.884;2023-04-03T00:01:55;3.60;1.00
56137;DHT22;42008;52.934;5.884;2023-04-03T00:04:21;4.30;1.00
56137;DHT22;42008;52.934;5.884;2023-04-03T00:06:46;4.40;1.00
56137;DHT22;42008;52.934;5.884;2023-04-03T00:09:12;4.20;1.00
56137;DHT22;42008;52.934;5.884;2023-04-03T00:11:38;3.40;1.00
56137;DHT22;42008;52.934;5.884;2023-04-03T00:14:03;3.40;1.00
56137;DHT22;42008;52.934;5.884;2023-04-03T00:16:29;3.20;1.00
56137;DHT22;42008;52.934;5.884;2023-04-03T00:18:55;3.60;1.00
56137;DHT22;42008;52.934;5.884;2023-04-03T00:21:20;4.60;1.00
56137;DHT22;42008;52.934;5.884;2023-04-03T00:23:46;4.30;1.00
56137;DHT22;42008;52.934;5.884;2023-04-03T00:26:11;3.40;1.00
56137;DHT22;42008;52.934;5.884;2023-04-03T00:28:37;3.70;1.00
56137;DHT22;42008;52.934;5.884;2023-04-03T00:31:03;3.30;6.40
56137;DHT22;42008;52.934;5.884;2023-04-03T00:33:28;4.00;21.80
56137;DHT22;42008;52.934;5.884;2023-04-03T00:35:54;3.40;17.10
56137;DHT22;42008;52.934;5.884;2023-04-03T00:38:19;3.60;73.70
56137;DHT22;42008;52.934;5.884;2023-04-03T00:40:47;3.40;35.00
56137;DHT22;42008;52.934;5.884;2023-04-03T00:43:21;3.30;49.10
56137;DHT22;42008;52.934;5.884;2023-04-03T00:45:51;3.80;30.50
56137;DHT22;42008;52.934;5.884;2023-04-03T00:48:21;3.60;99.90
56137;DHT22;42008;52.934;5.884;2023-04-03T00:50:48;3.20;94.00
56137;DHT22;42008;52.934;5.884;2023-04-03T00:53:28;3.40;98.10
56137;DHT22;42008;52.934;5.884;2023-04-03T00:55:56;3.90;85.70
56137;DHT22;42008;52.934;5.884;2023-04-03T00:58:28;3.10;99.90
56137;DHT22;42008;52.934;5.884;2023-04-03T01:00:58;2.60;99.90
56137;DHT22;42008;52.934;5.884;2023-04-03T01:03:24;3.10;99.90
56137;DHT22;42008;52.934;5.884;2023-04-03T01:05:49;3.50;99.90
56137;DHT22;42008;52.934;5.884;2023-04-03T01:08:15;2.40;99.90
56137;DHT22;42008;52.934;5.884;2023-04-03T01:10:41;3.20;99.90
56137;DHT22;42008;52.934;5.884;2023-04-03T01:15:47;3.30;99.90
56137;DHT22;42008;52.934;5.884;2023-04-03T01:18:13;3.30;99.90
56137;DHT22;42008;52.934;5.884;2023-04-03T01:23:29;2.90;99.90
56137;DHT22;42008;52.934;5.884;2023-04-03T01:25:57;3.30;99.90
56137;DHT22;42008;52.934;5.884;2023-04-03T01:28:26;3.50;99.90
56137;DHT22;42008;52.934;5.884;2023-04-03T01:31:13;3.00;99.90
56137;DHT22;42008;52.934;5.884;2023-04-03T01:33:41;2.70;99.90
56137;DHT22;42008;52.934;5.884;2023-04-03T01:36:07;2.90;99.90
56137;DHT22;42008;52.934;5.884;2023-04-03T01:38:33;2.70;99.90
56137;DHT22;42008;52.934;5.884;2023-04-03T01:40:59;2.20;99.90
56137;DHT22;42008;52.934;5.884;2023-04-03T01:43:25;3.50;99.90
56137;DHT22;42008;52.934;5.884;2023-04-03T01:45:51;2.30;99.90
56137;DHT22;42008;52.934;5.884;2023-04-03T01:48:18;2.40;99.90
56137;DHT22;42008;52.934;5.884;2023-04-03T01:50:43;2.20;99.90
56137;DHT22;42008;52.934;5.884;2023-04-03T01:53:09;3.20;99.90
56137;DHT22;42008;52.934;5.884;2023-04-03T01:55:35;3.40;99.90
56137;DHT22;42008;52.934;5.884;2023-04-03T01:58:00;3.40;99.90
56137;DHT22;42008;52.934;5.884;2023-04-03T02:00:26;3.30;99.90
56137;DHT22;42008;52.934;5.884;2023-04-03T02:02:52;2.40;99.90
56137;DHT22;42008;52.934;5.884;2023-04-03T02:05:18;2.20;99.90
56137;DHT22;42008;52.934;5.884;2023-04-03T02:07:43;2.00;99.90
56137;DHT22;42008;52.934;5.884;2023-04-03T02:10:09;3.20;99.90
56137;DHT22;42008;52.934;5.884;2023-04-03T02:12:35;3.20;99.90
56137;DHT22;42008;52.934;5.884;2023-04-03T02:15:00;3.20;99.90
56137;DHT22;42008;52.934;5.884;2023-04-03T02:17:26;2.40;99.90
56137;DHT22;42008;52.934;5.884;2023-04-03T02:19:52;2.10;99.90
56137;DHT22;42008;52.934;5.884;2023-04-03T02:22:17;3.20;99.90
56137;DHT22;42008;52.934;5.884;2023-04-03T02:24:43;2.20;99.90
56137;DHT22;42008;52.934;5.884;2023-04-03T02:27:09;2.50;99.90
56137;DHT22;42008;52.934;5.884;2023-04-03T02:29:34;2.50;99.90
56137;DHT22;42008;52.934;5.884;2023-04-03T02:32:00;2.50;99.90
56137;DHT22;42008;52.934;5.884;2023-04-03T02:34:26;1.90;99.90
56137;DHT22;42008;52.934;5.884;2023-04-03T02:36:51;1.90;99.90
56137;DHT22;42008;52.934;5.884;2023-04-03T02:39:17;2.40;99.90
56137;DHT22;42008;52.934;5.884;2023-04-03T02:41:42;2.00;99.90
56137;DHT22;42008;52.934;5.884;2023-04-03T02:44:09;2.00;99.90
56137;DHT22;42008;52.934;5.884;2023-04-03T02:46:35;2.50;99.90
56137;DHT22;42008;52.934;5.884;2023-04-03T02:49:04;2.60;99.90
56137;DHT22;42008;52.934;5.884;2023-04-03T02:51:31;2.70;99.90
56137;DHT22;42008;52.934;5.884;2023-04-03T02:53:57;2.10;99.90
56137;DHT22;42008;52.934;5.884;2023-04-03T02:56:22;2.50;99.90
56137;DHT22;42008;52.934;5.884;2023-04-03T02:58:48;2.20;1.00
56137;DHT22;42008;52.934;5.884;2023-04-03T03:01:14;1.90;1.00
56137;DHT22;42008;52.934;5.884;2023-04-03T03:03:39;2.30;1.00
56137;DHT22;42008;52.934;5.884;2023-04-03T03:06:08;2.00;1.00
56137;DHT22;42008;52.934;5.884;2023-04-03T03:08:34;1.70;1.00
56137;DHT22;42008;52.934;5.884;2023-04-03T03:11:00;2.50;1.00
56137;DHT22;42008;52.934;5.884;2023-04-03T03:13:26;2.20;1.00
56137;DHT22;42008;52.934;5.884;2023-04-03T03:15:52;2.00;1.00
56137;DHT22;42008;52.934;5.884;2023-04-03T03:18:17;1.80;1.00
56137;DHT22;42008;52.934;5.884;2023-04-03T03:20:44;2.30;1.00
56137;DHT22;42008;52.934;5.884;2023-04-03T03:23:09;1.90;1.00
56137;DHT22;42008;52.934;5.884;2023-04-03T03:25:41;2.50;1.00
56137;DHT22;42008;52.934;5.884;2023-04-03T03:28:07;2.50;1.00
56137;DHT22;42008;52.934;5.884;2023-04-03T03:30:33;2.20;1.00
56137;DHT22;42008;52.934;5.884;2023-04-03T03:32:59;2.30;1.00
56137;DHT22;42008;52.934;5.884;2023-04-03T03:35:24;2.10;1.00
56137;DHT22;42008;52.934;5.884;2023-04-03T03:37:50;2.50;1.00
56137;DHT22;42008;52.934;5.884;2023-04-03T03:40:16;2.10;1.00
56137;DHT22;42008;52.934;5.884;2023-04-03T03:42:41;2.50;1.00
56137;DHT22;42008;52.934;5.884;2023-04-03T03:45:07;1.90;1.00
56137;DHT22;42008;52.934;5.884;2023-04-03T03:47:33;2.20;1.00
56137;DHT22;42008;52.934;5.884;2023-04-03T03:49:59;2.00;1.00
56137;DHT22;42008;52.934;5.884;2023-04-03T03:52:25;2.40;1.00
56137;DHT22;42008;52.934;5.884;2023-04-03T03:54:51;1.70;1.00
56137;DHT22;42008;52.934;5.884;2023-04-03T03:57:17;1.90;1.00
56137;DHT22;42008;52.934;5.884;2023-04-03T03:59:42;2.50;1.00
56137;DHT22;42008;52.934;5.884;2023-04-03T04:02:10;1.10;1.00
56137;DHT22;42008;52.934;5.884;2023-04-03T04:04:36;2.10;1.00
56137;DHT22;42008;52.934;5.884;2023-04-03T04:07:02;1.80;1.00
56137;DHT22;42008;52.934;5.884;2023-04-03T04:09:28;1.20;1.00
56137;DHT22;42008;52.934;5.884;2023-04-03T04:11:54;2.20;1.00
56137;DHT22;42008;52.934;5.884;2023-04-03T04:14:19;2.10;1.00
56137;DHT22;42008;52.934;5.884;2023-04-03T04:16:48;1.90;1.00
56137;DHT22;42008;52.934;5.884;2023-04-03T04:19:14;2.50;1.00
56137;DHT22;42008;52.934;5.884;2023-04-03T04:21:40;2.00;30.00
56137;DHT22;42008;52.934;5.884;2023-04-03T04:24:07;1.10;10.20
56137;DHT22;42008;52.934;5.884;2023-04-03T04:26:33;1.20;1.00
56137;DHT22;42008;52.934;5.884;2023-04-03T04:28:58;2.00;1.00
56137;DHT22;42008;52.934;5.884;2023-04-03T04:31:24;0.80;1.00
56137;DHT22;42008;52.934;5.884;2023-04-03T04:33:49;1.20;1.00
56137;DHT22;42008;52.934;5.884;2023-04-03T04:36:15;1.20;1.00
56137;DHT22;42008;52.934;5.884;2023-04-03T04:38:41;0.90;1.00
56137;DHT22;42008;52.934;5.884;2023-04-03T04:41:07;1.30;11.80
56137;DHT22;42008;52.934;5.884;2023-04-03T04:43:33;0.90;99.90
56137;DHT22;42008;52.934;5.884;2023-04-03T04:46:07;1.20;99.90
56137;DHT22;42008;52.934;5.884;2023-04-03T04:48:33;0.80;99.90
56137;DHT22;42008;52.934;5.884;2023-04-03T04:50:59;1.20;99.90
56137;DHT22;42008;52.934;5.884;2023-04-03T04:53:25;1.20;99.90
56137;DHT22;42008;52.934;5.884;2023-04-03T04:55:51;0.90;99.90
56137;DHT22;42008;52.934;5.884;2023-04-03T04:58:18;0.10;99.90
56137;DHT22;42008;52.934;5.884;2023-04-03T05:00:43;1.10;99.90
56137;DHT22;42008;52.934;5.884;2023-04-03T05:03:10;0.80;99.90
56137;DHT22;42008;52.934;5.884;2023-04-03T05:05:35;1.00;99.90
56137;DHT22;42008;52.934;5.884;2023-04-03T05:08:01;1.00;99.90
56137;DHT22;42008;52.934;5.884;2023-04-03T05:10:28;0.10;99.90
56137;DHT22;42008;52.934;5.884;2023-04-03T05:12:53;1.10;99.90
56137;DHT22;42008;52.934;5.884;2023-04-03T05:15:19;1.10;99.90
56137;DHT22;42008;52.934;5.884;2023-04-03T05:17:44;1.20;99.90
56137;DHT22;42008;52.934;5.884;2023-04-03T05:20:10;1.10;99.90
56137;DHT22;42008;52.934;5.884;2023-04-03T05:22:36;1.20;99.90
56137;DHT22;42008;52.934;5.884;2023-04-03T05:25:02;1.30;99.90
56137;DHT22;42008;52.934;5.884;2023-04-03T05:27:28;1.20;99.90
56137;DHT22;42008;52.934;5.884;2023-04-03T05:29:54;1.20;99.90
56137;DHT22;42008;52.934;5.884;2023-04-03T05:32:21;1.30;99.90
56137;DHT22;42008;52.934;5.884;2023-04-03T05:34:46;1.20;99.90
56137;DHT22;42008;52.934;5.884;2023-04-03T05:37:13;0.90;99.90
56137;DHT22;42008;52.934;5.884;2023-04-03T05:39:38;1.10;99.90
56137;DHT22;42008;52.934;5.884;2023-04-03T05:42:06;0.60;99.90
56137;DHT22;42008;52.934;5.884;2023-04-03T05:44:32;1.20;99.90
56137;DHT22;42008;52.934;5.884;2023-04-03T05:46:58;1.30;99.90
56137;DHT22;42008;52.934;5.884;2023-04-03T05:49:24;1.10;99.90
56137;DHT22;42008;52.934;5.884;2023-04-03T05:51:50;0.80;99.90
56137;DHT22;42008;52.934;5.884;2023-04-03T05:54:34;1.10;99.90
56137;DHT22;42008;52.934;5.884;2023-04-03T05:57:00;1.20;99.90
56137;DHT22;42008;52.934;5.884;2023-04-03T05:59:25;1.30;99.90
56137;DHT22;42008;52.934;5.884;2023-04-03T06:01:51;1.40;99.90
56137;DHT22;42008;52.934;5.884;2023-04-03T06:04:17;1.40;99.90
56137;DHT22;42008;52.934;5.884;2023-04-03T06:06:53;1.50;99.90
56137;DHT22;42008;52.934;5.884;2023-04-03T06:09:21;1.60;99.90
56137;DHT22;42008;52.934;5.884;2023-04-03T06:11:47;2.00;99.90
56137;DHT22;42008;52.934;5.884;2023-04-03T06:14:13;2.00;99.90
56137;DHT22;42008;52.934;5.884;2023-04-03T06:16:39;1.50;99.90
56137;DHT22;42008;52.934;5.884;2023-04-03T06:19:05;2.20;99.90
56137;DHT22;42008;52.934;5.884;2023-04-03T06:21:32;1.90;99.90
56137;DHT22;42008;52.934;5.884;2023-04-03T06:23:57;2.40;99.90
56137;DHT22;42008;52.934;5.884;2023-04-03T06:26:23;2.00;99.90
56137;DHT22;42008;52.934;5.884;2023-04-03T06:28:49;2.20;99.90
56137;DHT22;42008;52.934;5.884;2023-04-03T06:31:14;2.40;99.90
56137;DHT22;42008;52.934;5.884;2023-04-03T06:33:40;2.40;99.90
56137;DHT22;42008;52.934;5.884;2023-04-03T06:36:06;2.50;99.90
56137;DHT22;42008;52.934;5.884;2023-04-03T06:38:33;2.60;99.90
56137;DHT22;42008;52.934;5.884;2023-04-03T06:40:59;2.70;95.60
56137;DHT22;42008;52.934;5.884;2023-04-03T06:43:25;2.60;98.10
56137;DHT22;42008;52.934;5.884;2023-04-03T06:45:51;2.70;80.30
56137;DHT22;42008;52.934;5.884;2023-04-03T06:48:17;3.20;34.30
56137;DHT22;42008;52.934;5.884;2023-04-03T06:50:42;2.80;1.00
56137;DHT22;42008;52.934;5.884;2023-04-03T06:53:09;2.80;1.00
56137;DHT22;42008;52.934;5.884;2023-04-03T06:55:35;3.00;1.00
56137;DHT22;42008;52.934;5.884;2023-04-03T06:58:01;3.30;1.00
56137;DHT22;42008;52.934;5.884;2023-04-03T07:00:27;3.40;1.00
56137;DHT22;42008;52.934;5.884;2023-04-03T07:02:53;3.30;1.00
56137;DHT22;42008;52.934;5.884;2023-04-03T07:05:18;3.20;1.00
56137;DHT22;42008;52.934;5.884;2023-04-03T07:07:44;3.40;1.00
56137;DHT22;42008;52.934;5.884;2023-04-03T07:10:10;3.80;1.00
56137;DHT22;42008;52.934;5.884;2023-04-03T07:12:36;3.80;1.00
56137;DHT22;42008;52.934;5.884;2023-04-03T07:15:04;3.70;1.00
56137;DHT22;42008;52.934;5.884;2023-04-03T07:17:30;3.90;1.00
56137;DHT22;42008;52.934;5.884;2023-04-03T07:19:55;3.90;1.00
56137;DHT22;42008;52.934;5.884;2023-04-03T07:22:21;3.70;1.00
56137;DHT22;42008;52.934;5.884;2023-04-03T07:24:47;3.90;1.00
56137;DHT22;42008;52.934;5.884;2023-04-03T07:27:12;4.10;1.00
56137;DHT22;42008;52.934;5.884;2023-04-03T07:29:38;4.00;1.00
56137;DHT22;42008;52.934;5.884;2023-04-03T07:32:04;4.00;1.00
56137;DHT22;42008;52.934;5.884;2023-04-03T07:34:31;4.30;1.00
56137;DHT22;42008;52.934;5.884;2023-04-03T07:36:57;4.40;1.00
56137;DHT22;42008;52.934;5.884;2023-04-03T07:39:23;4.50;1.00
56137;DHT22;42008;52.934;5.884;2023-04-03T07:41:48;4.80;1.00
56137;DHT22;42008;52.934;5.884;2023-04-03T07:44:15;4.70;1.00
56137;DHT22;42008;52.934;5.884;2023-04-03T07:46:40;4.50;1.00
56137;DHT22;42008;52.934;5.884;2023-04-03T07:49:06;5.00;1.00
56137;DHT22;42008;52.934;5.884;2023-04-03T07:51:32;5.10;1.00
56137;DHT22;42008;52.934;5.884;2023-04-03T07:53:57;5.20;1.00
56137;DHT22;42008;52.934;5.884;2023-04-03T07:56:23;5.20;99.90
56137;DHT22;42008;52.934;5.884;2023-04-03T07:58:48;5.20;99.90
56137;DHT22;42008;52.934;5.884;2023-04-03T08:01:14;5.40;99.90
56137;DHT22;42008;52.934;5.884;2023-04-03T08:03:40;5.40;99.90
56137;DHT22;42008;52.934;5.884;2023-04-03T08:06:07;5.40;99.90
56137;DHT22;42008;52.934;5.884;2023-04-03T08:08:33;5.60;99.90
56137;DHT22;42008;52.934;5.884;2023-04-03T08:11:00;5.80;99.90
56137;DHT22;42008;52.934;5.884;2023-04-03T08:13:28;6.10;99.90
56137;DHT22;42008;52.934;5.884;2023-04-03T08:15:54;6.10;99.90
56137;DHT22;42008;52.934;5.884;2023-04-03T08:18:23;5.80;99.90
56137;DHT22;42008;52.934;5.884;2023-04-03T08:20:50;5.80;99.90
56137;DHT22;42008;52.934;5.884;2023-04-03T08:23:17;6.30;99.90
56137;DHT22;42008;52.934;5.884;2023-04-03T08:25:43;6.40;99.90
56137;DHT22;42008;52.934;5.884;2023-04-03T08:28:12;6.50;99.90
56137;DHT22;42008;52.934;5.884;2023-04-03T08:30:41;6.50;99.90
56137;DHT22;42008;52.934;5.884;2023-04-03T08:33:08;6.60;99.90
56137;DHT22;42008;52.934;5.884;2023-04-03T08:35:39;6.70;99.90
56137;DHT22;42008;52.934;5.884;2023-04-03T08:38:04;7.00;99.90
56137;DHT22;42008;52.934;5.884;2023-04-03T08:40:30;6.80;99.90
56137;DHT22;42008;52.934;5.884;2023-04-03T08:48:13;7.10;99.90
56137;DHT22;42008;52.934;5.884;2023-04-03T08:50:43;6.80;99.90
56137;DHT22;42008;52.934;5.884;2023-04-03T08:53:26;7.00;99.90
56137;DHT22;42008;52.934;5.884;2023-04-03T08:55:54;7.20;99.90
56137;DHT22;42008;52.934;5.884;2023-04-03T08:58:28;7.30;99.90
56137;DHT22;42008;52.934;5.884;2023-04-03T09:01:04;7.80;99.90
56137;DHT22;42008;52.934;5.884;2023-04-03T09:03:33;8.10;99.90
56137;DHT22;42008;52.934;5.884;2023-04-03T09:19:06;7.90;99.90
56137;DHT22;42008;52.934;5.884;2023-04-03T09:21:38;8.30;88.50
56137;DHT22;42008;52.934;5.884;2023-04-03T09:24:06;8.40;39.50
56137;DHT22;42008;52.934;5.884;2023-04-03T09:26:50;8.40;40.60
56137;DHT22;42008;52.934;5.884;2023-04-03T09:29:23;8.50;60.40
56137;DHT22;42008;52.934;5.884;2023-04-03T09:32:17;9.00;69.10
56137;DHT22;42008;52.934;5.884;2023-04-03T09:34:41;8.60;23.50
56137;DHT22;42008;52.934;5.884;2023-04-03T09:37:08;9.00;63.50
56137;DHT22;42008;52.934;5.884;2023-04-03T09:39:53;9.20;99.90
56137;DHT22;42008;52.934;5.884;2023-04-03T09:42:24;9.00;52.90
56137;DHT22;42008;52.934;5.884;2023-04-03T09:45:21;9.50;55.60
56137;DHT22;42008;52.934;5.884;2023-04-03T09:47:47;8.90;67.40
56137;DHT22;42008;52.934;5.884;2023-04-03T09:52:40;9.30;96.40
56137;DHT22;42008;52.934;5.884;2023-04-03T09:55:27;8.90;99.90
56137;DHT22;42008;52.934;5.884;2023-04-03T09:57:56;9.40;60.00
56137;DHT22;42008;52.934;5.884;2023-04-03T10:00:27;9.50;91.70
56137;DHT22;42008;52.934;5.884;2023-04-03T10:02:56;9.90;1.00
56137;DHT22;42008;52.934;5.884;2023-04-03T10:05:41;9.60;1.00
56137;DHT22;42008;52.934;5.884;2023-04-03T10:10:40;9.80;1.00
56137;DHT22;42008;52.934;5.884;2023-04-03T10:13:20;9.80;1.00
56137;DHT22;42008;52.934;5.884;2023-04-03T10:15:55;9.90;1.00
56137;DHT22;42008;52.934;5.884;2023-04-03T10:20:52;10.20;1.00
56137;DHT22;42008;52.934;5.884;2023-04-03T10:23:44;10.20;1.00
56137;DHT22;42008;52.934;5.884;2023-04-03T10:29:24;10.50;1.00
56137;DHT22;42008;52.934;5.884;2023-04-03T10:34:44;10.70;1.00
56137;DHT22;42008;52.934;5.884;2023-04-03T10:47:57;10.80;1.00
56137;DHT22;42008;52.934;5.884;2023-04-03T10:53:31;11.70;1.00
56137;DHT22;42008;52.934;5.884;2023-04-03T10:59:06;11.60;1.00
56137;DHT22;42008;52.934;5.884;2023-04-03T11:01:35;11.50;1.00
56137;DHT22;42008;52.934;5.884;2023-04-03T11:04:06;12.20;1.00
56137;DHT22;42008;52.934;5.884;2023-04-03T11:06:37;11.90;1.00
56137;DHT22;42008;52.934;5.884;2023-04-03T11:09:28;12.30;1.00
56137;DHT22;42008;52.934;5.884;2023-04-03T11:12:04;12.10;1.00
56137;DHT22;42008;52.934;5.884;2023-04-03T11:14:32;12.00;42.00
56137;DHT22;42008;52.934;5.884;2023-04-03T11:17:37;11.90;67.80
56137;DHT22;42008;52.934;5.884;2023-04-03T11:20:15;11.60;4.80
56137;DHT22;42008;52.934;5.884;2023-04-03T11:23:29;11.70;11.60
56137;DHT22;42008;52.934;5.884;2023-04-03T11:25:32;12.30;20.60
56137;DHT22;42008;52.934;5.884;2023-04-03T11:28:01;12.30;15.50
56137;DHT22;42008;52.934;5.884;2023-04-03T11:30:44;11.90;1.00
56137;DHT22;42008;52.934;5.884;2023-04-03T11:35:41;12.20;25.50
56137;DHT22;42008;52.934;5.884;2023-04-03T11:38:17;12.40;22.70
56137;DHT22;42008;52.934;5.884;2023-04-03T11:40:45;12.50;26.40
56137;DHT22;42008;52.934;5.884;2023-04-03T11:46:01;12.60;42.60
56137;DHT22;42008;52.934;5.884;2023-04-03T11:53:53;12.20;6.70
56137;DHT22;42008;52.934;5.884;2023-04-03T12:01:53;12.80;36.40
56137;DHT22;42008;52.934;5.884;2023-04-03T12:04:21;12.70;11.40
56137;DHT22;42008;52.934;5.884;2023-04-03T12:12:30;13.20;1.00
56137;DHT22;42008;52.934;5.884;2023-04-03T12:15:20;13.40;3.60
56137;DHT22;42008;52.934;5.884;2023-04-03T12:17:46;14.00;4.20
56137;DHT22;42008;52.934;5.884;2023-04-03T12:23:28;13.70;1.00
56137;DHT22;42008;52.934;5.884;2023-04-03T12:26:20;13.60;21.40
56137;DHT22;42008;52.934;5.884;2023-04-03T12:28:51;14.00;89.00
56137;DHT22;42008;52.934;5.884;2023-04-03T12:31:19;14.60;99.90
56137;DHT22;42008;52.934;5.884;2023-04-03T12:34:02;14.20;99.90
56137;DHT22;42008;52.934;5.884;2023-04-03T12:37:29;14.30;63.40
56137;DHT22;42008;52.934;5.884;2023-04-03T12:45:08;14.70;99.90
56137;DHT22;42008;52.934;5.884;2023-04-03T12:47:37;14.50;99.90
56137;DHT22;42008;52.934;5.884;2023-04-03T12:50:30;15.20;1.00
56137;DHT22;42008;52.934;5.884;2023-04-03T12:53:06;15.60;1.00
56137;DHT22;42008;52.934;5.884;2023-04-03T12:55:32;16.50;1.00
56137;DHT22;42008;52.934;5.884;2023-04-03T12:58:23;17.00;1.00
56137;DHT22;42008;52.934;5.884;2023-04-03T13:01:21;16.80;1.00
56137;DHT22;42008;52.934;5.884;2023-04-03T13:03:52;16.80;1.00
56137;DHT22;42008;52.934;5.884;2023-04-03T13:06:21;16.50;1.00
56137;DHT22;42008;52.934;5.884;2023-04-03T13:08:53;17.40;1.00
56137;DHT22;42008;52.934;5.884;2023-04-03T13:11:20;17.10;1.00
56137;DHT22;42008;52.934;5.884;2023-04-03T13:16:21;17.10;1.00
56137;DHT22;42008;52.934;5.884;2023-04-03T13:18:52;17.70;1.00
56137;DHT22;42008;52.934;5.884;2023-04-03T13:21:23;17.90;1.00
56137;DHT22;42008;52.934;5.884;2023-04-03T13:23:52;18.60;1.00
56137;DHT22;42008;52.934;5.884;2023-04-03T13:26:20;18.50;1.00
56137;DHT22;42008;52.934;5.884;2023-04-03T13:28:47;19.30;1.00
56137;DHT22;42008;52.934;5.884;2023-04-03T13:34:10;19.40;1.00
56137;DHT22;42008;52.934;5.884;2023-04-03T13:36:44;19.90;1.00
56137;DHT22;42008;52.934;5.884;2023-04-03T13:41:38;19.40;1.00
56137;DHT22;42008;52.934;5.884;2023-04-03T13:46:55;19.70;1.00
56137;DHT22;42008;52.934;5.884;2023-04-03T13:51:53;20.50;99.90
56137;DHT22;42008;52.934;5.884;2023-04-03T13:54:24;20.40;99.90
56137;DHT22;42008;52.934;5.884;2023-04-03T13:56:57;20.60;99.90
56137;DHT22;42008;52.934;5.884;2023-04-03T13:59:24;22.60;99.90
56137;DHT22;42008;52.934;5.884;2023-04-03T14:04:30;21.60;99.90
56137;DHT22;42008;52.934;5.884;2023-04-03T14:06:56;21.50;99.90
56137;DHT22;42008;52.934;5.884;2023-04-03T14:09:24;23.40;99.90
56137;DHT22;42008;52.934;5.884;2023-04-03T14:11:54;23.40;99.90
56137;DHT22;42008;52.934;5.884;2023-04-03T14:14:23;24.00;99.90
56137;DHT22;42008;52.934;5.884;2023-04-03T14:16:57;23.80;99.90
56137;DHT22;42008;52.934;5.884;2023-04-03T14:19:27;24.00;99.90
56137;DHT22;42008;52.934;5.884;2023-04-03T14:21:54;23.30;99.90
56137;DHT22;42008;52.934;5.884;2023-04-03T14:24:21;23.30;99.90
56137;DHT22;42008;52.934;5.884;2023-04-03T14:26:48;23.60;99.90
56137;DHT22;42008;52.934;5.884;2023-04-03T14:29:14;23.80;99.90
56137;DHT22;42008;52.934;5.884;2023-04-03T14:31:42;24.00;99.90
56137;DHT22;42008;52.934;5.884;2023-04-03T14:34:12;24.30;99.90
56137;DHT22;42008;52.934;5.884;2023-04-03T14:36:39;23.30;99.90
56137;DHT22;42008;52.934;5.884;2023-04-03T14:39:07;23.50;99.90
56137;DHT22;42008;52.934;5.884;2023-04-03T14:41:34;23.40;99.90
56137;DHT22;42008;52.934;5.884;2023-04-03T14:43:59;24.60;99.90
56137;DHT22;42008;52.934;5.884;2023-04-03T14:46:37;24.20;99.90
56137;DHT22;42008;52.934;5.884;2023-04-03T14:49:09;23.10;99.90
56137;DHT22;42008;52.934;5.884;2023-04-03T14:51:38;23.50;99.90
56137;DHT22;42008;52.934;5.884;2023-04-03T14:54:09;24.40;99.90
56137;DHT22;42008;52.934;5.884;2023-04-03T14:56:36;23.60;99.90
56137;DHT22;42008;52.934;5.884;2023-04-03T14:59:02;24.20;99.90
56137;DHT22;42008;52.934;5.884;2023-04-03T15:01:28;24.20;99.90
56137;DHT22;42008;52.934;5.884;2023-04-03T15:03:54;24.50;99.90
56137;DHT22;42008;52.934;5.884;2023-04-03T15:06:20;24.20;99.90
56137;DHT22;42008;52.934;5.884;2023-04-03T15:08:47;24.00;99.90
56137;DHT22;42008;52.934;5.884;2023-04-03T15:11:13;24.10;99.90
56137;DHT22;42008;52.934;5.884;2023-04-03T15:13:39;23.80;99.90
56137;DHT22;42008;52.934;5.884;2023-04-03T15:16:11;24.00;99.90
56137;DHT22;42008;52.934;5.884;2023-04-03T15:18:39;23.80;99.90
56137;DHT22;42008;52.934;5.884;2023-04-03T15:21:05;23.70;99.90
56137;DHT22;42008;52.934;5.884;2023-04-03T15:23:30;24.50;99.90
56137;DHT22;42008;52.934;5.884;2023-04-03T15:25:57;23.90;99.90
56137;DHT22;42008;52.934;5.884;2023-04-03T15:28:25;25.60;99.90
56137;DHT22;42008;52.934;5.884;2023-04-03T15:30:52;25.30;99.90
56137;DHT22;42008;52.934;5.884;2023-04-03T15:33:18;24.50;99.90
56137;DHT22;42008;52.934;5.884;2023-04-03T15:35:43;24.80;99.90
56137;DHT22;42008;52.934;5.884;2023-04-03T15:38:09;26.60;99.90
56137;DHT22;42008;52.934;5.884;2023-04-03T15:40:35;27.50;99.90
56137;DHT22;42008;52.934;5.884;2023-04-03T15:43:01;28.00;99.90
56137;DHT22;42008;52.934;5.884;2023-04-03T15:45:29;27.60;99.90
56137;DHT22;42008;52.934;5.884;2023-04-03T15:47:55;26.20;99.90
56137;DHT22;42008;52.934;5.884;2023-04-03T15:50:21;25.10;99.90
56137;DHT22;42008;52.934;5.884;2023-04-03T15:52:50;25.10;99.90
56137;DHT22;42008;52.934;5.884;2023-04-03T15:55:20;25.60;99.90
56137;DHT22;42008;52.934;5.884;2023-04-03T15:57:46;25.50;99.90
56137;DHT22;42008;52.934;5.884;2023-04-03T16:00:12;25.30;99.90
56137;DHT22;42008;52.934;5.884;2023-04-03T16:02:38;25.90;99.90
56137;DHT22;42008;52.934;5.884;2023-04-03T16:05:04;24.20;99.90
56137;DHT22;42008;52.934;5.884;2023-04-03T16:07:30;24.10;99.90
56137;DHT22;42008;52.934;5.884;2023-04-03T16:09:56;24.40;99.90
56137;DHT22;42008;52.934;5.884;2023-04-03T16:12:21;27.00;99.90
56137;DHT22;42008;52.934;5.884;2023-04-03T16:14:47;27.20;99.90
56137;DHT22;42008;52.934;5.884;2023-04-03T16:17:12;27.10;99.90
56137;DHT22;42008;52.934;5.884;2023-04-03T16:19:38;24.80;99.90
56137;DHT22;42008;52.934;5.884;2023-04-03T16:22:04;25.00;99.90
56137;DHT22;42008;52.934;5.884;2023-04-03T16:24:30;26.70;99.90
56137;DHT22;42008;52.934;5.884;2023-04-03T16:26:55;25.70;99.90
56137;DHT22;42008;52.934;5.884;2023-04-03T16:29:21;26.60;99.90
56137;DHT22;42008;52.934;5.884;2023-04-03T16:31:47;24.90;99.90
56137;DHT22;42008;52.934;5.884;2023-04-03T16:34:12;26.20;99.90
56137;DHT22;42008;52.934;5.884;2023-04-03T16:36:38;26.90;99.90
56137;DHT22;42008;52.934;5.884;2023-04-03T16:39:04;26.70;99.90
56137;DHT22;42008;52.934;5.884;2023-04-03T16:41:29;24.60;99.90
56137;DHT22;42008;52.934;5.884;2023-04-03T16:43:55;24.10;99.90
56137;DHT22;42008;52.934;5.884;2023-04-03T16:46:21;23.00;99.90
56137;DHT22;42008;52.934;5.884;2023-04-03T16:48:46;22.90;99.90
56137;DHT22;42008;52.934;5.884;2023-04-03T16:51:12;21.90;99.90
56137;DHT22;42008;52.934;5.884;2023-04-03T16:53:38;21.00;99.90
56137;DHT22;42008;52.934;5.884;2023-04-03T16:56:04;20.90;99.90
56137;DHT22;42008;52.934;5.884;2023-04-03T16:58:30;21.10;99.90
56137;DHT22;42008;52.934;5.884;2023-04-03T17:00:55;21.60;99.90
56137;DHT22;42008;52.934;5.884;2023-04-03T17:03:21;20.70;99.90
56137;DHT22;42008;52.934;5.884;2023-04-03T17:05:48;20.80;99.90
56137;DHT22;42008;52.934;5.884;2023-04-03T17:08:15;20.20;99.90
56137;DHT22;42008;52.934;5.884;2023-04-03T17:10:41;22.50;99.90
56137;DHT22;42008;52.934;5.884;2023-04-03T17:13:07;20.80;99.90
56137;DHT22;42008;52.934;5.884;2023-04-03T17:15:33;21.20;99.90
56137;DHT22;42008;52.934;5.884;2023-04-03T17:17:59;21.90;99.90
56137;DHT22;42008;52.934;5.884;2023-04-03T17:20:24;19.60;99.90
56137;DHT22;42008;52.934;5.884;2023-04-03T17:22:50;18.50;99.90
56137;DHT22;42008;52.934;5.884;2023-04-03T17:25:17;19.60;99.90
56137;DHT22;42008;52.934;5.884;2023-04-03T17:27:42;17.50;99.90
56137;DHT22;42008;52.934;5.884;2023-04-03T17:30:08;20.10;99.90
56137;DHT22;42008;52.934;5.884;2023-04-03T17:32:34;19.70;99.90